Terminal Aerodrome Forecast
Issued by NWS

Home | Current Version | Previous Version | Text Only | Print | Product List | Glossary On
Versions: 1 2 3 4 5 6 7 8 9 10 11 12 13 14 15 16 17 18 19 20 21 22 23 24
000
FTUS41 KBGM 221700
TAFITH
TAF
KITH 221720Z 2218/2318 31011G20KT P6SM SCT028 OVC040
      TEMPO 2218/2221 -SHRA OVC028
     FM222200 32012G20KT P6SM BKN040
     FM230000 30009KT P6SM BKN035
     FM230800 28004KT P6SM OVC028
     FM231300 27007KT P6SM BKN035=

USA.gov is the U.S. government's official web portal to all federal, state and local government web resources and services.